»·PEaware :: N136JR KSBA-KBUR

N136JR :: KSBA-KBUR

FLIGHT INFORMATION

Flight Status: Arrived
Operator: Privately registered:
United States
More flights under this callsign
Pilot: Anonymous 30017 (30017)
Aircraft: CESSNA 172 SKYHAWK
(C172)
More flights by this aircraft type
Origin: KSBA Santa Barbara Mun
United States
Destination: KBUR Bob Hope-Burbank
United States
More flights between these airports :: More routes between these airports
Route: KSBA KBUR
File this flight plan on PilotEdge
Remarks: FOR CAT8
Altitude:
(Current/Filed)
5,500ft
Speed:
(Current/Filed)
130kts
Departed: 01-Aug-20 10:15 AM
Arrived: 01-Aug-20 11:00 AM
Distance/Time
Traveled:
75nm/0:44
Distance/Time
To Go:
Arrived

Flight Plot

Page will automatically refresh every two minutes.


Map Options




Map Legend


Flown Route
Filed Route
Departure Airport
Arrival Airport
Navaid (VOR, NDB)
Fix

Horizontal Profiles

Position Reports

Time Latitude Longitude Heading Altitude Ground
Speed
01-Aug-20 09:58 34.422663 -119.835593 340 10ft 0kts
01-Aug-20 09:59 34.422663 -119.835593 340 10ft 0kts
01-Aug-20 10:00 34.422663 -119.835593 340 10ft 0kts
01-Aug-20 10:01 34.422663 -119.835593 340 10ft 0kts
01-Aug-20 10:01 34.422663 -119.835593 340 10ft 0kts
01-Aug-20 10:03 34.422663 -119.835593 340 10ft 0kts
01-Aug-20 10:04 34.422663 -119.835593 340 10ft 0kts
01-Aug-20 10:04 34.422663 -119.835593 340 10ft 0kts
01-Aug-20 10:05 34.422663 -119.835593 340 10ft 0kts
01-Aug-20 10:07 34.422553 -119.836408 246 11ft 0kts
01-Aug-20 10:07 34.423235 -119.837338 353 12ft 11kts
01-Aug-20 10:08 34.426027 -119.838136 345 11ft 6kts
01-Aug-20 10:09 34.427026 -119.838467 343 11ft 0kts
01-Aug-20 10:10 34.427146 -119.838509 345 11ft 4kts
01-Aug-20 10:11 34.430266 -119.839387 348 14ft 8kts
01-Aug-20 10:12 34.430687 -119.839775 249 14ft 0kts
01-Aug-20 10:13 34.430683 -119.839788 249 14ft 1kts
01-Aug-20 10:14 34.422380 -119.837923 163 272ft 74kts
01-Aug-20 10:15 34.402282 -119.827462 149 1194ft 80kts
01-Aug-20 10:16 34.382739 -119.811849 142 1837ft 99kts
01-Aug-20 10:17 34.361036 -119.784068 132 1563ft 117kts
01-Aug-20 10:18 34.339735 -119.755922 132 1555ft 111kts
01-Aug-20 10:19 34.318744 -119.728241 132 1555ft 111kts
01-Aug-20 10:20 34.294458 -119.705394 132 1555ft 111kts
01-Aug-20 10:21 34.269739 -119.683311 157 1551ft 111kts
01-Aug-20 10:22 34.249443 -119.657536 103 1649ft 105kts
01-Aug-20 10:23 34.249270 -119.624157 84 2140ft 97kts
01-Aug-20 10:24 34.255069 -119.591019 73 2622ft 109kts
01-Aug-20 10:25 34.262433 -119.554501 78 3126ft 112kts
01-Aug-20 10:26 34.268638 -119.517327 78 3626ft 112kts
01-Aug-20 10:27 34.274833 -119.480159 78 4125ft 112kts
01-Aug-20 10:28 34.281055 -119.442790 78 4629ft 115kts
01-Aug-20 10:29 34.286900 -119.408401 76 5103ft 97kts
01-Aug-20 10:30 34.292490 -119.377408 76 5591ft 92kts
01-Aug-20 10:31 34.298395 -119.343381 78 5637ft 118kts
01-Aug-20 10:32 34.304883 -119.303866 78 5532ft 117kts
01-Aug-20 10:33 34.311212 -119.265222 78 5533ft 117kts
01-Aug-20 10:34 34.315957 -119.226241 84 5533ft 117kts
01-Aug-20 10:35 34.311919 -119.187548 104 5533ft 117kts
01-Aug-20 10:36 34.305180 -119.148976 100 5533ft 117kts
01-Aug-20 10:37 34.299754 -119.110167 99 5533ft 117kts
01-Aug-20 10:38 34.294652 -119.071244 98 5533ft 117kts
01-Aug-20 10:39 34.289622 -119.032302 98 5533ft 117kts
01-Aug-20 10:40 34.284609 -118.993433 98 5533ft 117kts
01-Aug-20 10:41 34.279574 -118.954447 98 5533ft 117kts
01-Aug-20 10:42 34.274627 -118.915640 98 5533ft 117kts
01-Aug-20 10:43 34.269531 -118.876693 98 5533ft 117kts
01-Aug-20 10:44 34.264490 -118.837937 98 5533ft 117kts
01-Aug-20 10:45 34.259414 -118.799003 98 5533ft 117kts
01-Aug-20 10:46 34.254332 -118.760119 98 5533ft 117kts
01-Aug-20 10:47 34.249305 -118.721742 98 5533ft 117kts
01-Aug-20 10:48 34.244494 -118.685109 98 5533ft 117kts
01-Aug-20 10:49 34.239990 -118.650888 98 5533ft 117kts
01-Aug-20 10:50 34.234884 -118.612182 98 5533ft 117kts
01-Aug-20 10:51 34.229774 -118.573544 98 5533ft 117kts
01-Aug-20 10:52 34.224404 -118.533272 98 5094ft 119kts
01-Aug-20 10:53 34.219314 -118.495015 98 4495ft 115kts
01-Aug-20 10:54 34.215534 -118.466705 98 3949ft 112kts
01-Aug-20 10:55 34.212076 -118.441476 101 3309ft 93kts
01-Aug-20 10:56 34.203123 -118.421276 132 2766ft 88kts
01-Aug-20 10:57 34.197665 -118.401199 88 2301ft 86kts
01-Aug-20 10:58 34.197877 -118.375112 87 1429ft 94kts
01-Aug-20 10:59 34.197659 -118.356597 87 708ft 8kts
01-Aug-20 11:00 34.197617 -118.353250 89 699ft 8kts
01-Aug-20 11:01 34.198392 -118.352246 1 697ft 0kts
01-Aug-20 11:02 34.198392 -118.352246 1 697ft 0kts
01-Aug-20 11:03 34.198754 -118.352664 279 698ft 10kts
01-Aug-20 11:04 34.198784 -118.354847 271 706ft 0kts
01-Aug-20 11:05 34.198816 -118.356693 267 711ft 18kts
01-Aug-20 11:06 34.199627 -118.359410 260 720ft 0kts

Navigation Log

Ident Type
Flight plan parsing failed, navigation log unavailable